Latest Weather Observations for Ocean Reef

IDW60801

Issued at 7:53 am WST Tuesday 14 July 2020 (issued every 10 minutes, with the page automatically refreshed every 10 minutes)

About weather observations | Map of weather stations | Latest weather observations for WA | Other Formats
Station Details ID: 009214 Name: OCEAN REEF Lat: -31.76 Lon: 115.73 Height: 10.0 m
Data from the previous 72 hours. | See also: Recent months at Ocean Reef
Date/Time
WST
Temp
°C
App
Temp
°C
Dew
Point
°C
Rel
Hum
%
Delta-T
°C
Wind Press
QNH
hPa
Press
MSL
hPa
Rain since
9am
mm
Dir  Spd
km/h
Gust
km/h
Spd
kts
Gust
kts
14/07:30am - - - - - SW 48 63 26 34 - - -
14/07:26am - - - - - WSW 50 63 27 34 - - -
14/07:00am - - - - - W 50 63 27 34 - - -
14/06:30am - - - - - W 52 61 28 33 - - -
14/06:00am - - - - - W 56 69 30 37 - - -
14/05:30am - - - - - W 56 70 30 38 - - -
14/05:00am - - - - - W 57 69 31 37 - - -
14/04:30am - - - - - W 52 61 28 33 - - -
14/04:09am - - - - - W 52 70 28 38 - - -
14/04:00am - - - - - W 59 70 32 38 - - -
14/03:56am - - - - - W 57 74 31 40 - - -
14/03:50am - - - - - WNW 54 74 29 40 - - -
14/03:30am - - - - - WNW 50 59 27 32 - - -
14/03:00am - - - - - W 46 61 25 33 - - -
14/02:30am - - - - - WSW 48 59 26 32 - - -
14/02:00am - - - - - W 54 63 29 34 - - -
14/01:51am - - - - - WNW 61 80 33 43 - - -
14/01:42am - - - - - NW 57 78 31 42 - - -
14/01:30am - - - - - NW 57 72 31 39 - - -
14/01:00am - - - - - NW 59 76 32 41 - - -
14/12:49am - - - - - NW 59 78 32 42 - - -
14/12:34am - - - - - NNW 48 70 26 38 - - -
14/12:32am - - - - - NNW 43 70 23 38 - - -
14/12:30am - - - - - NNW 39 50 21 27 - - -
14/12:00am - - - - - NNW 48 57 26 31 - - -
 
Date/Time
WST
Temp
°C
App
Temp
°C
Dew
Point
°C
Rel
Hum
%
Delta-T
°C
Wind Press
QNH
hPa
Press
MSL
hPa
Rain since
9am
mm
Dir  Spd
km/h
Gust
km/h
Spd
kts
Gust
kts
13/11:37pm - - - - - NW 57 76 31 41 - - -
13/11:30pm - - - - - NW 54 70 29 38 - - -
13/11:00pm - - - - - NNW 56 74 30 40 - - -
13/10:30pm - - - - - NW 52 82 28 44 - - -
13/10:29pm - - - - - NW 50 72 27 39 - - -
13/10:14pm - - - - - NNW 28 50 15 27 - - -
13/10:00pm - - - - - N 28 39 15 21 - - -
13/09:35pm - - - - - N 28 46 15 25 - - -
13/09:30pm - - - - - N 24 33 13 18 - - -
13/09:00pm - - - - - NNE 20 30 11 16 - - -
13/08:30pm - - - - - N 17 26 9 14 - - -
13/08:00pm - - - - - NNE 19 28 10 15 - - -
13/07:30pm - - - - - N 17 26 9 14 - - -
13/07:00pm - - - - - NNW 15 22 8 12 - - -
13/06:30pm - - - - - N 15 20 8 11 - - -
13/06:00pm - - - - - NNW 17 24 9 13 - - -
13/05:30pm - - - - - N 19 24 10 13 - - -
13/05:00pm - - - - - NNW 28 33 15 18 - - -
13/04:30pm - - - - - NNW 37 44 20 24 - - -
13/04:00pm - - - - - NW 33 39 18 21 - - -
13/03:30pm - - - - - NW 33 39 18 21 - - -
13/03:00pm - - - - - NW 32 37 17 20 - - -
13/02:30pm - - - - - NW 43 61 23 33 - - -
13/02:22pm - - - - - NW 33 56 18 30 - - -
13/02:00pm - - - - - WNW 33 37 18 20 - - -
13/01:30pm - - - - - NW 35 41 19 22 - - -
13/01:00pm - - - - - NW 35 43 19 23 - - -
13/12:30pm - - - - - NW 32 41 17 22 - - -
13/12:00pm - - - - - NNW 22 30 12 16 - - -
13/11:30am - - - - - N 15 24 8 13 - - -
13/11:00am - - - - - N 17 26 9 14 - - -
13/10:30am - - - - - N 15 19 8 10 - - -
13/10:00am - - - - - NNE 17 24 9 13 - - -
13/09:30am - - - - - NNE 19 26 10 14 - - -
13/09:00am - - - - - NNE 24 33 13 18 - - -
13/08:30am - - - - - NNE 20 30 11 16 - - -
13/08:00am - - - - - NNE 22 28 12 15 - - -
13/07:30am - - - - - NNE 19 26 10 14 - - -
13/07:00am - - - - - NNE 17 28 9 15 - - -
13/06:30am - - - - - NNE 13 17 7 9 - - -
13/06:00am - - - - - NNE 13 17 7 9 - - -
13/05:30am - - - - - NNE 20 30 11 16 - - -
13/05:00am - - - - - NNE 17 24 9 13 - - -
13/04:30am - - - - - NNE 15 19 8 10 - - -
13/04:00am - - - - - NNE 13 17 7 9 - - -
13/03:30am - - - - - N 15 22 8 12 - - -
13/03:00am - - - - - NW 22 26 12 14 - - -
13/02:30am - - - - - NW 22 28 12 15 - - -
13/02:00am - - - - - NW 20 26 11 14 - - -
13/01:30am - - - - - WNW 19 22 10 12 - - -
13/01:00am - - - - - WNW 28 32 15 17 - - -
13/12:30am - - - - - WNW 28 32 15 17 - - -
13/12:00am - - - - - NW 17 19 9 10 - - -
 
Date/Time
WST
Temp
°C
App
Temp
°C
Dew
Point
°C
Rel
Hum
%
Delta-T
°C
Wind Press
QNH
hPa
Press
MSL
hPa
Rain since
9am
mm
Dir  Spd
km/h
Gust
km/h
Spd
kts
Gust
kts
12/11:30pm - - - - - WNW 24 28 13 15 - - -
12/11:00pm - - - - - W 28 33 15 18 - - -
12/10:30pm - - - - - NNW 33 54 18 29 - - -
12/10:24pm - - - - - NNW 32 54 17 29 - - -
12/10:00pm - - - - - N 22 32 12 17 - - -
12/09:30pm - - - - - N 24 35 13 19 - - -
12/09:00pm - - - - - N 20 30 11 16 - - -
12/08:30pm - - - - - N 20 26 11 14 - - -
12/08:00pm - - - - - NNW 19 24 10 13 - - -
12/07:30pm - - - - - NNE 24 30 13 16 - - -
12/07:00pm - - - - - NNE 22 30 12 16 - - -
12/06:30pm - - - - - N 19 28 10 15 - - -
12/06:00pm - - - - - NNE 22 30 12 16 - - -
12/05:30pm - - - - - N 20 30 11 16 - - -
12/05:00pm - - - - - N 24 32 13 17 - - -
12/04:30pm - - - - - NNW 24 28 13 15 - - -
12/04:00pm - - - - - NNW 26 32 14 17 - - -
12/03:30pm - - - - - NNW 30 35 16 19 - - -
12/03:00pm - - - - - NNW 26 30 14 16 - - -
12/02:30pm - - - - - N 24 33 13 18 - - -
12/02:00pm - - - - - N 20 33 11 18 - - -
12/01:30pm - - - - - N 24 33 13 18 - - -
12/01:00pm - - - - - N 24 32 13 17 - - -
12/12:30pm - - - - - N 20 30 11 16 - - -
12/12:00pm - - - - - N 22 30 12 16 - - -
12/11:30am - - - - - NNE 26 37 14 20 - - -
12/11:00am - - - - - NNE 33 46 18 25 - - -
12/10:30am - - - - - NNE 32 44 17 24 - - -
12/10:00am - - - - - NNE 32 44 17 24 - - -
12/09:31am - - - - - NE 35 54 19 29 - - -
12/09:30am - - - - - NE 37 54 20 29 - - -
12/09:13am - - - - - NE 37 56 20 30 - - -
12/09:00am - - - - - NE 33 46 18 25 - - -
12/08:30am - - - - - NE 33 46 18 25 - - -
12/08:00am - - - - - NE 32 43 17 23 - - -
12/07:30am - - - - - NE 32 41 17 22 - - -
12/07:00am - - - - - NE 33 46 18 25 - - -
12/06:30am - - - - - NE 33 41 18 22 - - -
12/06:00am - - - - - NE 30 44 16 24 - - -
12/05:30am - - - - - NE 24 35 13 19 - - -
12/05:00am - - - - - NE 30 41 16 22 - - -
12/04:30am - - - - - NE 32 41 17 22 - - -
12/04:00am - - - - - NE 30 37 16 20 - - -
12/03:30am - - - - - NE 28 39 15 21 - - -
12/03:00am - - - - - NE 28 39 15 21 - - -
12/02:30am - - - - - NE 30 37 16 20 - - -
12/02:00am - - - - - NE 32 41 17 22 - - -
12/01:30am - - - - - NE 30 39 16 21 - - -
12/01:00am - - - - - ENE 28 35 15 19 - - -
12/12:30am - - - - - ENE 26 35 14 19 - - -
12/12:00am - - - - - ENE 26 33 14 18 - - -
 
Date/Time
WST
Temp
°C
App
Temp
°C
Dew
Point
°C
Rel
Hum
%
Delta-T
°C
Wind Press
QNH
hPa
Press
MSL
hPa
Rain since
9am
mm
Dir  Spd
km/h
Gust
km/h
Spd
kts
Gust
kts
11/11:30pm - - - - - ENE 24 32 13 17 - - -
11/11:00pm - - - - - ENE 22 32 12 17 - - -
11/10:30pm - - - - - ENE 20 30 11 16 - - -
11/10:00pm - - - - - ENE 15 22 8 12 - - -
11/09:30pm - - - - - ENE 20 30 11 16 - - -
11/09:00pm - - - - - ENE 20 30 11 16 - - -
11/08:30pm - - - - - ENE 15 22 8 12 - - -
11/08:00pm - - - - - ENE 9 11 5 6 - - -
11/07:30pm - - - - - ENE 9 13 5 7 - - -
11/07:00pm - - - - - ENE 13 15 7 8 - - -
11/06:30pm - - - - - E 7 9 4 5 - - -
11/06:00pm - - - - - ESE 7 9 4 5 - - -
11/05:30pm - - - - - E 11 15 6 8 - - -
11/05:00pm - - - - - ENE 15 20 8 11 - - -
11/04:30pm - - - - - ENE 17 24 9 13 - - -
11/04:00pm - - - - - E 15 22 8 12 - - -
11/03:30pm - - - - - ENE 13 19 7 10 - - -
11/03:00pm - - - - - E 15 22 8 12 - - -
11/02:30pm - - - - - ENE 17 24 9 13 - - -
11/02:00pm - - - - - ENE 15 24 8 13 - - -
11/01:30pm - - - - - ENE 15 26 8 14 - - -
11/01:00pm - - - - - ENE 13 22 7 12 - - -
11/12:30pm - - - - - NE 15 28 8 15 - - -
11/12:00pm - - - - - NE 17 24 9 13 - - -
11/11:30am - - - - - NE 20 30 11 16 - - -
11/11:00am - - - - - NE 22 37 12 20 - - -
11/10:30am - - - - - NE 20 32 11 17 - - -
11/10:00am - - - - - NE 19 28 10 15 - - -
11/09:30am - - - - - NE 22 33 12 18 - - -
11/09:00am - - - - - ENE 11 19 6 10 - - -
11/08:30am - - - - - ENE 7 11 4 6 - - -
11/08:00am - - - - - ENE 6 9 3 5 - - -

Other formats

Comma delimited format used in spreadsheet applications
http://www.bom.gov.au/fwo/IDW60801/IDW60801.94607.axf

JavaScript Object Notation format (JSON) in row-major order
http://www.bom.gov.au/fwo/IDW60801/IDW60801.94607.json

Data quality

Most of these data are generated automatically and are frequently updated. Quality checks on data are not normally performed. It is possible for incorrect values to appear. Refer to information at About Latest Weather Observations and please check the disclaimer before using these data.